Time;durP1;ratioP1;P1;durP2;ratioP2;P2;SDS_P1;SDS_P2;PMS_P1;PMS_P2;Temp;Humidity;BMP_temperature;BMP_pressure;BME280_temperature;BME280_humidity;BME280_pressure;Samples;Min_cycle;Max_cycle;Signal;HPM_P1;HPM_P2
2023/01/06 00:01:35;;;;;;;14.05;6.90;;;;;;;9.31;100.00;101666.88;5283402;28;20384;-74
2023/01/06 00:04:06;;;;;;;14.07;6.83;;;;;;;9.31;100.00;101674.69;5283033;28;20145;-74
2023/01/06 00:06:37;;;;;;;9.30;6.43;;;;;;;9.29;100.00;101666.88;5281893;28;20471;-74
2023/01/06 00:09:09;;;;;;;12.17;7.73;;;;;;;9.28;100.00;101664.25;5283324;28;20451;-74
2023/01/06 00:11:40;;;;;;;12.27;6.60;;;;;;;9.30;100.00;101657.34;5283133;28;20078;-74
2023/01/06 00:14:12;;;;;;;9.73;5.63;;;;;;;9.35;100.00;101666.03;5283057;28;20040;-75
2023/01/06 00:16:43;;;;;;;13.53;6.37;;;;;;;9.33;100.00;101656.50;5282895;28;20040;-75
2023/01/06 00:19:15;;;;;;;14.23;6.40;;;;;;;9.32;100.00;101653.00;5283398;28;20375;-75
2023/01/06 00:21:46;;;;;;;10.27;5.80;;;;;;;9.38;100.00;101650.44;5281634;28;20032;-75
2023/01/06 00:24:18;;;;;;;10.20;5.60;;;;;;;9.39;100.00;101643.53;5283188;28;20391;-74
2023/01/06 00:26:50;;;;;;;11.10;5.00;;;;;;;9.39;100.00;101646.13;5282957;28;20130;-74
2023/01/06 00:29:21;;;;;;;8.27;4.77;;;;;;;9.44;100.00;101665.25;5282076;28;20033;-75
2023/01/06 00:31:53;;;;;;;11.93;5.63;;;;;;;9.41;100.00;101654.81;5283392;28;20020;-76
2023/01/06 00:34:24;;;;;;;6.37;4.67;;;;;;;9.37;100.00;101664.34;5283093;28;20048;-75
2023/01/06 00:36:56;;;;;;;9.40;4.67;;;;;;;9.37;100.00;101646.13;5283013;28;20033;-75
2023/01/06 00:39:27;;;;;;;13.03;5.10;;;;;;;9.38;100.00;101646.97;5282879;28;20111;-75
2023/01/06 00:42:05;;;;;;;9.97;5.00;;;;;;;9.40;100.00;101645.25;5283250;28;20036;-75
2023/01/06 00:44:38;;;;;;;9.43;3.92;;;;;;;9.36;100.00;101633.97;5282853;28;20037;-75
2023/01/06 00:47:10;;;;;;;8.18;4.43;;;;;;;9.40;100.00;101634.84;5281748;28;20040;-75
2023/01/06 00:49:41;;;;;;;9.55;4.75;;;;;;;9.37;100.00;101643.50;5283112;28;20379;-75
2023/01/06 00:52:13;;;;;;;10.97;5.47;;;;;;;9.39;100.00;101649.59;5264725;28;20031;-75
2023/01/06 00:54:45;;;;;;;9.43;3.80;;;;;;;9.39;100.00;101639.19;5283364;28;20111;-76
2023/01/06 00:57:16;;;;;;;8.70;4.23;;;;;;;9.39;100.00;101641.78;5281798;28;20132;-76
2023/01/06 00:59:48;;;;;;;8.43;3.90;;;;;;;9.37;100.00;101642.63;5282798;28;20491;-76
2023/01/06 01:02:20;;;;;;;10.17;3.87;;;;;;;9.36;100.00;101643.50;5282492;28;20042;-76
2023/01/06 01:04:51;;;;;;;9.32;4.40;;;;;;;9.37;100.00;101640.03;5282779;28;20032;-75
2023/01/06 01:07:22;;;;;;;10.50;4.33;;;;;;;9.36;100.00;101641.75;5284650;28;20048;-76
2023/01/06 01:09:54;;;;;;;7.30;3.67;;;;;;;9.34;100.00;101638.28;5300166;28;20036;-76
2023/01/06 01:12:25;;;;;;;7.80;3.70;;;;;;;9.35;100.00;101633.94;5303447;28;20063;-76
2023/01/06 01:14:56;;;;;;;7.80;3.43;;;;;;;9.33;100.00;101636.53;5294826;28;20094;-75
2023/01/06 01:17:30;;;;;;;7.13;3.53;;;;;;;9.35;100.00;101629.59;5289897;28;20119;-76
2023/01/06 01:20:01;;;;;;;9.93;3.08;;;;;;;9.33;100.00;101633.94;5288720;28;20035;-76
2023/01/06 01:22:33;;;;;;;5.50;3.00;;;;;;;9.34;100.00;101629.59;5289333;28;20036;-76
2023/01/06 01:25:05;;;;;;;7.57;3.17;;;;;;;9.30;100.00;101626.97;5288839;28;20050;-76
2023/01/06 01:27:36;;;;;;;5.53;2.70;;;;;;;9.31;100.00;101628.72;5288587;28;20029;-76
2023/01/06 01:30:08;;;;;;;10.67;2.97;;;;;;;9.34;100.00;101621.78;5287490;28;20029;-76
2023/01/06 01:32:39;;;;;;;7.50;2.50;;;;;;;9.34;100.00;101632.19;5287677;28;20028;-76
2023/01/06 01:35:11;;;;;;;8.47;2.60;;;;;;;9.33;100.00;101625.28;5287819;28;20487;-77
2023/01/06 01:37:42;;;;;;;5.67;2.67;;;;;;;9.34;100.00;101621.78;5288259;28;20025;-77
2023/01/06 01:40:14;;;;;;;7.50;3.00;;;;;;;9.35;100.00;101624.41;5286496;28;20048;-77
2023/01/06 01:42:45;;;;;;;7.07;3.27;;;;;;;9.34;100.00;101616.59;5287952;28;20036;-77
2023/01/06 01:45:25;;;;;;;6.03;2.27;;;;;;;9.35;100.00;101614.00;5286460;28;20036;-77
2023/01/06 01:48:19;;;;;;;7.90;2.63;;;;;;;9.34;100.00;101609.66;5286710;28;20024;-77
2023/01/06 01:50:53;;;;;;;7.22;2.47;;;;;;;9.35;100.00;101597.50;5286054;28;20028;-76
2023/01/06 01:53:28;;;;;;;6.22;2.90;;;;;;;9.37;100.00;101594.06;5283325;28;20037;-76
2023/01/06 01:56:05;;;;;;;6.75;2.30;;;;;;;9.42;100.00;101594.97;5280996;28;20081;-75
2023/01/06 01:59:01;;;;;;;8.18;2.80;;;;;;;9.45;100.00;101591.47;5284920;28;20098;-75
2023/01/06 02:01:33;;;;;;;9.88;3.03;;;;;;;9.41;100.00;101582.81;5285791;28;20039;-75
2023/01/06 02:04:05;;;;;;;7.95;2.50;;;;;;;9.43;100.00;101590.63;5285385;28;20036;-75
2023/01/06 02:06:39;;;;;;;6.30;2.15;;;;;;;9.42;100.00;101589.75;5285464;28;20497;-75
2023/01/06 02:09:16;;;;;;;7.78;1.92;;;;;;;9.39;100.00;101586.28;5283049;28;20529;-75
2023/01/06 02:11:50;;;;;;;8.45;2.13;;;;;;;9.45;100.00;101586.28;5263261;28;20517;-75
2023/01/06 02:14:24;;;;;;;5.57;2.05;;;;;;;9.41;100.00;101593.22;5263854;28;20029;-75
2023/01/06 02:17:03;;;;;;;6.78;1.60;;;;;;;9.43;100.00;101588.00;5263965;28;20032;-75
2023/01/06 02:20:12;;;;;;;6.18;2.22;;;;;;;9.45;100.00;101584.56;5264412;28;20032;-75
2023/01/06 02:23:14;;;;;;;4.70;1.90;;;;;;;9.43;100.00;101586.28;5264312;28;20528;-75
2023/01/06 02:26:07;;;;;;;4.57;1.83;;;;;;;9.45;100.00;101587.16;5264396;28;20461;-75
2023/01/06 02:28:59;;;;;;;7.05;2.10;;;;;;;9.46;100.00;101577.63;5266451;28;20025;-75
2023/01/06 02:31:40;;;;;;;4.63;1.80;;;;;;;9.50;100.00;101576.78;5264053;28;20044;-75
2023/01/06 02:34:26;;;;;;;5.40;2.00;;;;;;;9.50;100.00;101579.38;5263883;28;20063;-76
2023/01/06 02:37:13;;;;;;;6.63;2.00;;;;;;;9.52;100.00;101566.38;5264462;28;20094;-75
2023/01/06 02:40:03;;;;;;;8.02;2.08;;;;;;;9.52;100.00;101554.22;5262842;28;20421;-75
2023/01/06 02:42:49;;;;;;;4.30;1.90;;;;;;;9.52;100.00;101553.38;5264137;28;20024;-75
2023/01/06 02:45:34;;;;;;;5.90;1.70;;;;;;;9.52;100.00;101548.16;5263460;28;20025;-75
2023/01/06 02:48:27;;;;;;;6.18;2.15;;;;;;;9.53;100.00;101542.97;5283205;28;20090;-75
2023/01/06 02:51:15;;;;;;;7.35;1.58;;;;;;;9.54;100.00;101531.66;5283322;28;20475;-75
2023/01/06 02:53:52;;;;;;;5.63;1.70;;;;;;;9.56;100.00;101539.50;5284125;28;20040;-75
2023/01/06 02:56:30;;;;;;;7.57;2.58;;;;;;;9.55;100.00;101533.41;5284456;28;20048;-75
2023/01/06 02:59:06;;;;;;;3.40;1.50;;;;;;;9.56;100.00;101524.72;5284142;28;20033;-75
2023/01/06 03:01:42;;;;;;;2.65;1.45;;;;;;;9.58;100.00;101532.53;5284255;28;20024;-75
2023/01/06 03:04:19;;;;;;;8.00;1.90;;;;;;;9.62;100.00;101536.91;5284132;28;20039;-76
2023/01/06 03:06:54;;;;;;;4.53;1.85;;;;;;;9.61;100.00;101520.44;5284387;28;20052;-76
2023/01/06 03:09:30;;;;;;;6.75;2.33;;;;;;;9.65;100.00;101526.50;5282632;28;20468;-75
2023/01/06 03:12:09;;;;;;;5.57;2.28;;;;;;;9.62;100.00;101519.53;5282812;28;20039;-75
2023/01/06 03:14:46;;;;;;;5.28;1.73;;;;;;;9.65;100.00;101529.13;5284302;28;20030;-76
2023/01/06 03:17:17;;;;;;;7.03;1.80;;;;;;;9.66;100.00;101517.84;5283575;28;20025;-76
2023/01/06 03:19:49;;;;;;;5.13;1.50;;;;;;;9.62;100.00;101508.28;5283920;28;20418;-75
2023/01/06 03:22:22;;;;;;;4.05;1.60;;;;;;;9.63;100.00;101517.84;5283277;28;20021;-75
2023/01/06 03:24:54;;;;;;;6.18;2.42;;;;;;;9.67;99.59;101514.34;5282441;28;20531;-76
2023/01/06 03:27:26;;;;;;;8.63;1.87;;;;;;;9.65;100.00;101514.34;5283646;28;20158;-77
2023/01/06 03:29:58;;;;;;;8.70;1.70;;;;;;;9.65;100.00;101514.34;5299318;28;20031;-76
2023/01/06 03:32:48;;;;;;;3.45;1.50;;;;;;;9.65;99.90;101529.13;5283441;28;20040;-76
2023/01/06 03:35:40;;;;;;;4.40;1.90;;;;;;;9.65;99.85;101513.50;5283208;28;20063;-77
2023/01/06 03:38:39;;;;;;;4.95;2.00;;;;;;;9.64;100.00;101523.03;5283782;28;20108;-76
2023/01/06 03:43:10;;;;;;;4.57;2.10;;;;;;;9.62;100.00;101503.06;5284005;28;20028;-76
2023/01/06 03:45:09;;;;;;;9.90;1.80;;;;;;;9.66;100.00;101500.47;5283229;28;20119;-76
2023/01/06 03:47:50;;;;;;;4.82;2.33;;;;;;;9.64;100.00;101506.53;5260071;28;20388;-76
2023/01/06 03:50:29;;;;;;;10.27;2.28;;;;;;;9.67;100.00;101511.75;5282803;28;20028;-76
2023/01/06 03:53:27;;;;;;;6.72;1.60;;;;;;;9.66;100.00;101510.03;5283560;28;20074;-76
2023/01/06 03:56:15;;;;;;;6.10;2.60;;;;;;;9.68;99.84;101505.69;5282338;28;20028;-76
2023/01/06 03:58:52;;;;;;;5.28;1.90;;;;;;;9.67;100.00;101507.41;5283726;28;20040;-76
2023/01/06 04:01:25;;;;;;;6.90;2.42;;;;;;;9.65;100.00;101509.16;5283531;28;20027;-76
2023/01/06 04:03:56;;;;;;;7.43;2.47;;;;;;;9.65;100.00;101501.34;5283282;28;20028;-74
2023/01/06 04:06:28;;;;;;;4.93;1.60;;;;;;;9.67;100.00;101490.94;5283018;28;20097;-74
2023/01/06 04:08:59;;;;;;;3.80;1.77;;;;;;;9.73;100.00;101485.75;5283292;28;20116;-74
2023/01/06 04:14:21;;;;;;;5.18;1.52;;;;;;;9.70;100.00;101483.13;5283172;28;20036;-75
2023/01/06 04:16:52;;;;;;;4.83;1.83;;;;;;;9.72;100.00;101483.13;5283297;28;20463;-75
2023/01/06 04:19:24;;;;;;;3.40;1.57;;;;;;;9.70;100.00;101474.47;5283572;28;20036;-75
2023/01/06 04:21:55;;;;;;;3.00;1.37;;;;;;;9.73;100.00;101464.06;5283046;28;20037;-75
2023/01/06 04:24:28;;;;;;;4.80;1.70;;;;;;;9.75;100.00;101454.50;5284270;28;20111;-75
2023/01/06 04:27:00;;;;;;;3.72;1.80;;;;;;;9.68;100.00;101459.69;5296077;28;20052;-75
2023/01/06 04:29:31;;;;;;;4.53;1.33;;;;;;;9.75;100.00;101462.31;5291904;28;20033;-76
2023/01/06 04:32:03;;;;;;;4.67;1.30;;;;;;;9.75;100.00;101457.09;5285801;28;20097;-75
2023/01/06 04:34:34;;;;;;;3.87;1.40;;;;;;;9.75;100.00;101447.53;5286404;28;20040;-76
2023/01/06 04:37:06;;;;;;;3.17;1.40;;;;;;;9.77;99.90;101445.84;5284521;28;20094;-75
2023/01/06 04:39:37;;;;;;;4.07;1.73;;;;;;;9.78;99.67;101447.56;5285566;28;20043;-75
2023/01/06 04:42:09;;;;;;;4.60;1.60;;;;;;;9.80;99.77;101437.16;5285551;28;20047;-76
2023/01/06 04:44:41;;;;;;;4.63;1.40;;;;;;;9.75;100.00;101420.66;5285105;28;20036;-76
2023/01/06 04:47:12;;;;;;;2.88;1.33;;;;;;;9.75;99.72;101431.06;5287810;28;20036;-76
2023/01/06 04:49:44;;;;;;;5.03;1.30;;;;;;;9.79;99.34;101412.00;5289070;28;20024;-75
2023/01/06 04:52:15;;;;;;;2.87;1.20;;;;;;;9.80;99.24;101405.91;5288467;28;20033;-76
2023/01/06 04:54:46;;;;;;;1.50;1.40;;;;;;;9.77;99.25;101416.31;5288550;28;20032;-75
2023/01/06 04:57:18;;;;;;;4.17;1.63;;;;;;;9.81;99.10;101421.53;5288206;28;20025;-75
2023/01/06 04:59:49;;;;;;;3.97;1.30;;;;;;;9.80;99.14;101417.16;5288493;28;20070;-75
2023/01/06 05:02:20;;;;;;;3.73;1.70;;;;;;;9.78;99.29;101424.13;5287383;28;20143;-76
2023/01/06 05:04:52;;;;;;;1.87;1.23;;;;;;;9.81;98.97;101424.13;5286937;28;20040;-76
2023/01/06 05:07:23;;;;;;;4.10;1.53;;;;;;;9.81;99.37;101418.91;5287287;28;20475;-74
2023/01/06 05:09:55;;;;;;;3.03;1.70;;;;;;;9.76;99.74;101412.00;5286752;28;20025;-74
2023/01/06 05:12:26;;;;;;;4.03;1.27;;;;;;;9.75;99.66;101403.28;5286873;28;20036;-75
2023/01/06 05:14:57;;;;;;;4.30;1.50;;;;;;;9.79;99.46;101417.19;5286710;28;20041;-74
2023/01/06 05:17:29;;;;;;;5.53;1.40;;;;;;;9.75;99.72;101399.81;5285330;28;20102;-75
2023/01/06 05:20:00;;;;;;;4.80;1.40;;;;;;;9.71;99.68;101395.47;5286767;28;20082;-75
2023/01/06 05:22:31;;;;;;;2.70;1.07;;;;;;;9.71;100.00;101411.09;5286250;28;20032;-74
2023/01/06 05:25:03;;;;;;;2.20;1.00;;;;;;;9.69;100.00;101408.47;5286276;28;20083;-74
2023/01/06 05:27:34;;;;;;;4.20;1.13;;;;;;;9.67;100.00;101412.81;5286311;28;20117;-75
2023/01/06 05:30:06;;;;;;;2.67;1.20;;;;;;;9.68;100.00;101414.56;5286449;28;20181;-75
2023/01/06 05:32:38;;;;;;;3.57;1.80;;;;;;;9.73;100.00;101411.97;5285991;28;20057;-74
2023/01/06 05:35:09;;;;;;;3.90;1.40;;;;;;;9.72;100.00;101412.84;5286452;28;20036;-74
2023/01/06 05:37:40;;;;;;;2.93;1.20;;;;;;;9.70;100.00;101412.84;5285996;28;20025;-74
2023/01/06 05:40:12;;;;;;;5.23;1.70;;;;;;;9.68;100.00;101420.63;5287186;28;20119;-74
2023/01/06 05:42:43;;;;;;;1.97;1.37;;;;;;;9.71;100.00;101411.97;5285852;28;20502;-74
2023/01/06 05:45:15;;;;;;;3.57;1.40;;;;;;;9.72;100.00;101418.91;5285831;28;20037;-74
2023/01/06 05:47:46;;;;;;;4.60;1.20;;;;;;;9.74;100.00;101425.00;5286080;28;20117;-75
2023/01/06 05:50:18;;;;;;;2.27;1.30;;;;;;;9.70;100.00;101425.84;5284442;28;20028;-75
2023/01/06 05:52:49;;;;;;;3.47;1.57;;;;;;;9.71;100.00;101424.09;5285834;28;20056;-75
2023/01/06 05:55:20;;;;;;;7.40;1.53;;;;;;;9.68;100.00;101415.44;5285565;28;20029;-74
2023/01/06 05:57:52;;;;;;;2.23;1.20;;;;;;;9.77;100.00;101412.00;5285403;28;20068;-74
2023/01/06 06:00:23;;;;;;;2.10;1.13;;;;;;;9.77;99.76;101419.81;5284388;28;20040;-75
2023/01/06 06:02:54;;;;;;;5.60;1.53;;;;;;;9.80;99.54;101421.53;5285596;28;20104;-74
2023/01/06 06:05:26;;;;;;;2.70;1.17;;;;;;;9.80;99.31;101421.53;5285413;28;20036;-74
2023/01/06 06:07:57;;;;;;;3.07;1.27;;;;;;;9.77;100.00;101421.50;5284466;28;20037;-74
2023/01/06 06:10:29;;;;;;;3.97;1.30;;;;;;;9.77;100.00;101418.91;5284849;28;20024;-75
2023/01/06 06:13:00;;;;;;;4.50;2.27;;;;;;;9.78;100.00;101415.44;5285222;28;20020;-75
2023/01/06 06:15:31;;;;;;;5.10;1.50;;;;;;;9.77;100.00;101418.91;5284907;28;20150;-74
2023/01/06 06:18:03;;;;;;;4.23;1.20;;;;;;;9.80;100.00;101413.72;5285239;28;20036;-75
2023/01/06 06:20:34;;;;;;;4.23;1.57;;;;;;;9.75;100.00;101423.25;5283621;28;20437;-74
2023/01/06 06:23:06;;;;;;;6.00;1.77;;;;;;;9.74;100.00;101417.19;5285386;28;20086;-75
2023/01/06 06:25:37;;;;;;;3.37;1.80;;;;;;;9.78;100.00;101420.66;5285138;28;20032;-75
2023/01/06 06:28:08;;;;;;;5.63;1.40;;;;;;;9.75;100.00;101415.44;5284993;28;20037;-75
2023/01/06 06:30:40;;;;;;;3.63;1.53;;;;;;;9.85;99.84;101418.06;5284776;28;20081;-75
2023/01/06 06:33:11;;;;;;;4.23;1.43;;;;;;;9.82;100.00;101420.66;5284778;28;20082;-75
2023/01/06 06:35:43;;;;;;;2.80;1.40;;;;;;;9.83;100.00;101424.13;5284969;28;20048;-75
2023/01/06 06:38:14;;;;;;;5.87;2.07;;;;;;;9.78;100.00;101411.09;5284903;28;20532;-76
2023/01/06 06:40:46;;;;;;;4.17;1.47;;;;;;;9.76;100.00;101419.81;5283589;28;20124;-75
2023/01/06 06:43:17;;;;;;;2.17;1.17;;;;;;;9.76;100.00;101417.19;5284664;28;20025;-74
2023/01/06 06:45:49;;;;;;;4.77;2.33;;;;;;;9.71;100.00;101414.59;5284805;28;20036;-74
2023/01/06 06:48:20;;;;;;;4.27;1.80;;;;;;;9.62;100.00;101419.78;5284702;28;20037;-74
2023/01/06 06:50:56;;;;;;;3.70;1.53;;;;;;;9.68;100.00;101425.84;5284116;28;20047;-74
2023/01/06 06:53:28;;;;;;;5.22;1.48;;;;;;;9.67;100.00;101424.09;5284614;28;20030;-74
2023/01/06 06:55:59;;;;;;;3.83;1.83;;;;;;;9.59;100.00;101414.56;5284277;28;20044;-74
2023/01/06 06:58:31;;;;;;;3.00;1.20;;;;;;;9.59;100.00;101427.56;5284559;28;20024;-74
2023/01/06 07:01:07;;;;;;;6.43;1.60;;;;;;;9.49;100.00;101430.16;5284122;28;20060;-75
2023/01/06 07:03:39;;;;;;;3.55;1.58;;;;;;;9.37;100.00;101424.06;5284274;28;20029;-74
2023/01/06 07:06:14;;;;;;;5.33;1.30;;;;;;;9.38;100.00;101434.47;5283966;28;20492;-74
2023/01/06 07:08:47;;;;;;;5.07;2.00;;;;;;;9.35;100.00;101437.06;5283278;28;20107;-74
2023/01/06 07:11:19;;;;;;;;;;;;;;;9.32;100.00;101442.25;5284396;28;20051;-74
2023/01/06 07:13:50;;;;;;;2.20;1.67;;;;;;;9.29;100.00;101450.06;5284084;28;19913;-74
2023/01/06 07:16:24;;;;;;;2.60;1.70;;;;;;;9.18;100.00;101451.78;5283651;28;20040;-74
2023/01/06 07:18:55;;;;;;;2.63;1.60;;;;;;;9.13;100.00;101447.41;5284006;28;20487;-74
2023/01/06 07:21:26;;;;;;;3.73;1.90;;;;;;;9.05;100.00;101448.25;5283638;28;20082;-74
2023/01/06 07:23:58;;;;;;;11.20;1.83;;;;;;;8.97;100.00;101436.91;5284045;28;20028;-74
2023/01/06 07:26:29;;;;;;;5.27;2.00;;;;;;;8.98;100.00;101439.53;5283949;28;20032;-75
2023/01/06 07:29:01;;;;;;;3.53;2.17;;;;;;;9.02;100.00;101438.69;5283911;28;20094;-74
2023/01/06 07:31:32;;;;;;;3.37;1.93;;;;;;;9.03;100.00;101434.34;5283802;28;20028;-75
2023/01/06 07:34:04;;;;;;;3.70;2.50;;;;;;;8.98;100.00;101436.94;5283504;28;20202;-75
2023/01/06 07:36:35;;;;;;;3.83;2.37;;;;;;;9.02;100.00;101430.88;5283628;28;20361;-74
2023/01/06 07:39:06;;;;;;;3.13;2.00;;;;;;;8.98;100.00;101457.72;5285763;28;20036;-74
2023/01/06 07:41:38;;;;;;;3.77;2.00;;;;;;;8.94;100.00;101443.00;5302712;28;20017;-74
2023/01/06 07:44:09;;;;;;;4.97;2.20;;;;;;;8.92;100.00;101449.94;5300514;28;20031;-74
2023/01/06 07:46:40;;;;;;;4.37;1.90;;;;;;;8.92;100.00;101452.53;5287191;28;20380;-74
2023/01/06 07:49:13;;;;;;;4.37;2.20;;;;;;;8.93;100.00;101460.34;5287064;28;20035;-74
2023/01/06 07:51:44;;;;;;;4.60;1.90;;;;;;;8.98;100.00;101462.06;5285903;28;20025;-74
2023/01/06 07:54:16;;;;;;;5.33;2.23;;;;;;;9.01;100.00;101462.09;5286341;28;20100;-74
2023/01/06 07:56:47;;;;;;;6.07;2.10;;;;;;;9.06;100.00;101468.16;5285766;28;20537;-75
2023/01/06 07:59:18;;;;;;;2.90;1.90;;;;;;;9.17;100.00;101469.09;5267911;28;20372;-74
2023/01/06 08:01:50;;;;;;;5.37;2.10;;;;;;;9.23;100.00;101484.72;5285606;28;20136;-75
2023/01/06 08:04:21;;;;;;;3.73;1.87;;;;;;;9.28;100.00;101479.53;5285867;28;20111;-75
2023/01/06 08:06:53;;;;;;;3.93;1.77;;;;;;;9.31;100.00;101484.75;5286376;28;20131;-75
2023/01/06 08:09:25;;;;;;;2.45;1.70;;;;;;;9.33;100.00;101480.41;5286284;28;20021;-75
2023/01/06 08:11:58;;;;;;;2.80;1.43;;;;;;;9.35;100.00;101483.88;5283602;28;20044;-75
2023/01/06 08:14:29;;;;;;;1.85;1.63;;;;;;;9.31;100.00;101498.63;5285252;28;20060;-75
2023/01/06 08:17:01;;;;;;;2.57;1.67;;;;;;;9.29;100.00;101491.69;5284159;28;20083;-75
2023/01/06 08:19:32;;;;;;;4.40;1.60;;;;;;;9.34;100.00;101492.59;5283792;28;20043;-75
2023/01/06 08:22:04;;;;;;;6.67;2.10;;;;;;;9.42;100.00;101497.81;5287696;28;20036;-74
2023/01/06 08:24:35;;;;;;;2.37;1.97;;;;;;;9.48;100.00;101495.22;5289687;28;20074;-75
2023/01/06 08:27:06;;;;;;;3.00;2.10;;;;;;;9.54;100.00;101507.38;5290499;28;20039;-75
2023/01/06 08:29:38;;;;;;;2.67;1.77;;;;;;;9.58;100.00;101509.13;5289028;28;20043;-75
2023/01/06 08:32:09;;;;;;;2.77;1.70;;;;;;;9.61;100.00;101506.53;5287295;28;20039;-75
2023/01/06 08:34:40;;;;;;;5.23;2.07;;;;;;;9.62;100.00;101506.53;5290123;28;20088;-74
2023/01/06 08:37:12;;;;;;;3.23;1.80;;;;;;;9.64;100.00;101515.25;5288852;28;20036;-74
2023/01/06 08:39:43;;;;;;;2.40;1.93;;;;;;;9.67;100.00;101519.56;5288620;28;20036;-75
2023/01/06 08:42:15;;;;;;;2.57;1.97;;;;;;;9.68;100.00;101526.53;5288805;28;20029;-73
2023/01/06 08:44:46;;;;;;;2.70;1.70;;;;;;;9.65;100.00;101529.13;5287489;28;20036;-74
2023/01/06 08:47:17;;;;;;;3.10;2.03;;;;;;;9.64;100.00;101525.66;5286960;28;20044;-74
2023/01/06 08:49:49;;;;;;;2.40;1.70;;;;;;;9.68;100.00;101531.72;5289084;28;20379;-75
2023/01/06 08:52:20;;;;;;;2.13;1.93;;;;;;;9.67;100.00;101545.59;5287626;28;20060;-75
2023/01/06 08:54:52;;;;;;;2.73;2.27;;;;;;;9.67;100.00;101543.84;5288220;28;20163;-75
2023/01/06 08:57:23;;;;;;;2.53;2.10;;;;;;;9.70;100.00;101550.81;5287254;28;20060;-75
2023/01/06 08:59:54;;;;;;;2.43;2.00;;;;;;;9.70;100.00;101553.41;5287002;28;20124;-75
2023/01/06 09:02:28;;;;;;;3.03;2.20;;;;;;;9.75;100.00;101551.69;5286751;28;20533;-74
2023/01/06 09:04:59;;;;;;;2.35;2.15;;;;;;;9.77;100.00;101562.13;5288606;28;20053;-74
2023/01/06 09:07:31;;;;;;;2.77;2.50;;;;;;;9.80;100.00;101564.72;5288306;28;20049;-75
2023/01/06 09:10:03;;;;;;;3.93;2.80;;;;;;;9.84;100.00;101553.47;5287655;28;20098;-75
2023/01/06 09:12:34;;;;;;;4.70;2.80;;;;;;;9.88;100.00;101572.56;5286953;28;20403;-75
2023/01/06 09:15:06;;;;;;;5.07;3.00;;;;;;;9.87;100.00;101571.72;5287697;28;20032;-75
2023/01/06 09:17:37;;;;;;;4.30;3.47;;;;;;;9.91;100.00;101569.97;5287187;28;20086;-75
2023/01/06 09:20:09;;;;;;;3.57;2.90;;;;;;;9.95;100.00;101574.31;5287711;28;20039;-76
2023/01/06 09:22:40;;;;;;;5.30;2.80;;;;;;;9.98;100.00;101580.41;5286380;28;20021;-76
2023/01/06 09:25:12;;;;;;;4.47;3.50;;;;;;;9.99;100.00;101576.94;5286838;28;20466;-75
2023/01/06 09:27:43;;;;;;;4.03;3.00;;;;;;;10.04;100.00;101576.94;5286859;28;20046;-75
2023/01/06 09:30:15;;;;;;;4.50;3.67;;;;;;;10.06;100.00;101590.84;5286557;28;20438;-75
2023/01/06 09:32:47;;;;;;;10.10;4.67;;;;;;;10.08;100.00;101593.44;5285843;28;20400;-76
2023/01/06 09:35:18;;;;;;;5.27;3.37;;;;;;;10.08;100.00;101601.25;5286298;28;20032;-77
2023/01/06 09:37:49;;;;;;;4.63;3.10;;;;;;;10.05;100.00;101602.13;5285265;28;20037;-76
2023/01/06 09:40:56;;;;;;;5.50;3.40;;;;;;;10.02;100.00;101612.53;5284949;28;20028;-76
2023/01/06 09:43:46;;;;;;;5.72;3.75;;;;;;;10.06;100.00;101609.06;5282738;28;20044;-74
2023/01/06 09:46:22;;;;;;;6.63;3.85;;;;;;;10.04;100.00;101616.00;5287176;28;20067;-74
2023/01/06 09:49:26;;;;;;;5.93;3.72;;;;;;;10.15;100.00;101613.44;5285543;28;20028;-74
2023/01/06 09:52:02;;;;;;;4.28;3.13;;;;;;;10.28;100.00;101614.34;5285731;28;20035;-74
2023/01/06 09:54:41;;;;;;;5.47;3.50;;;;;;;10.45;100.00;101612.66;5286260;28;20093;-74
2023/01/06 09:57:20;;;;;;;5.55;3.70;;;;;;;10.49;100.00;101623.97;5286495;28;20028;-75
2023/01/06 10:00:06;;;;;;;7.47;3.65;;;;;;;10.66;100.00;101623.94;5286134;28;20025;-74
2023/01/06 10:02:39;;;;;;;7.80;3.95;;;;;;;10.69;100.00;101629.16;5285960;28;20033;-75
2023/01/06 10:05:31;;;;;;;6.80;4.38;;;;;;;10.83;100.00;101632.66;5286260;28;20031;-74
2023/01/06 10:08:19;;;;;;;6.50;3.88;;;;;;;10.76;100.00;101633.53;5286503;28;20048;-73
2023/01/06 10:11:05;;;;;;;7.53;4.18;;;;;;;10.60;100.00;101634.41;5285089;28;20056;-75
2023/01/06 10:14:02;;;;;;;4.88;3.50;;;;;;;10.54;100.00;101637.84;5285539;28;20494;-74
2023/01/06 10:16:44;;;;;;;8.25;3.85;;;;;;;10.45;100.00;101630.03;5285725;28;20032;-74
2023/01/06 10:19:29;;;;;;;4.85;3.30;;;;;;;10.38;100.00;101640.47;5286698;28;20025;-76
2023/01/06 10:22:19;;;;;;;5.65;3.20;;;;;;;10.38;100.00;101636.97;5286055;28;20035;-75
2023/01/06 10:25:16;;;;;;;5.50;3.75;;;;;;;10.40;100.00;101637.88;5285370;28;20353;-75
2023/01/06 10:28:03;;;;;;;7.70;3.50;;;;;;;10.38;100.00;101629.16;5278801;28;20044;-76
2023/01/06 10:30:46;;;;;;;6.55;3.63;;;;;;;10.39;100.00;101629.16;5285429;28;20028;-75
2023/01/06 10:33:24;;;;;;;6.75;3.38;;;;;;;10.40;100.00;101630.91;5285414;28;20043;-74
2023/01/06 10:35:57;;;;;;;3.97;2.80;;;;;;;10.64;100.00;101623.97;5285238;28;20391;-74
2023/01/06 10:38:38;;;;;;;;;;;;;;;11.12;99.98;101634.38;5285760;28;20375;-74
2023/01/06 10:41:33;;;;;;;4.88;3.13;;;;;;;11.44;97.21;101636.91;5285375;28;19909;-74
2023/01/06 10:44:05;;;;;;;5.10;3.63;;;;;;;11.30;95.56;101641.28;5283801;28;20024;-75
2023/01/06 10:46:37;;;;;;;4.50;3.85;;;;;;;11.20;96.08;101632.63;5284796;28;20390;-73
2023/01/06 10:49:14;;;;;;;6.32;4.07;;;;;;;11.05;97.53;101637.88;5284701;28;20020;-74
2023/01/06 10:51:59;;;;;;;6.72;4.30;;;;;;;10.92;98.21;101624.81;5284417;28;20032;-73
2023/01/06 10:54:33;;;;;;;5.65;4.43;;;;;;;10.86;97.84;101619.63;5285343;28;20460;-74
2023/01/06 10:57:14;;;;;;;6.30;4.88;;;;;;;10.75;96.92;101631.78;5283917;28;20101;-74
2023/01/06 11:00:09;;;;;;;6.07;5.45;;;;;;;10.68;97.92;101632.66;5284773;28;20025;-74
2023/01/06 11:02:49;;;;;;;7.35;5.90;;;;;;;10.57;98.07;101636.13;5284756;28;20056;-74
2023/01/06 11:05:26;;;;;;;6.90;5.93;;;;;;;10.54;97.71;101630.91;5286244;28;20464;-74
2023/01/06 11:08:02;;;;;;;8.30;6.13;;;;;;;10.61;96.71;101633.53;5285164;28;20393;-75
2023/01/06 11:10:39;;;;;;;7.85;5.93;;;;;;;10.59;96.98;101636.13;5287038;28;20033;-75
2023/01/06 11:13:19;;;;;;;6.75;5.78;;;;;;;10.60;95.68;101634.41;5305356;28;20081;-75
2023/01/06 11:15:52;;;;;;;9.15;6.22;;;;;;;10.71;95.22;101630.06;5297688;28;20032;-74
2023/01/06 11:18:38;;;;;;;8.30;5.97;;;;;;;11.29;92.22;101631.75;5288842;28;20392;-75
2023/01/06 11:21:15;;;;;;;7.68;6.32;;;;;;;11.71;89.56;101626.41;5287585;28;20039;-76
2023/01/06 11:23:47;;;;;;;10.25;5.90;;;;;;;11.95;86.74;101634.16;5286658;28;20047;-74
2023/01/06 11:26:21;;;;;;;;;;;;;;;12.18;86.79;101638.38;5286844;28;20033;-74
2023/01/06 11:28:53;;;;;;;;;;;;;;;11.92;83.23;101648.97;5286850;28;20004;-74
2023/01/06 11:31:27;;;;;;;7.40;5.07;;;;;;;11.62;82.83;101638.63;5286150;28;20315;-75
2023/01/06 11:34:02;;;;;;;8.15;4.38;;;;;;;11.49;81.46;101636.91;5286067;28;20032;-75
2023/01/06 11:36:33;;;;;;;10.55;5.00;;;;;;;11.35;81.71;101638.69;5286483;28;20112;-75
2023/01/06 11:39:22;;;;;;;5.40;3.33;;;;;;;11.24;83.09;101633.50;5286067;28;20539;-75
2023/01/06 11:41:57;;;;;;;7.13;4.20;;;;;;;10.94;84.33;101627.44;5285626;28;20029;-75
2023/01/06 11:44:32;;;;;;;10.85;4.28;;;;;;;10.88;84.11;101637.88;5285880;28;20027;-73
2023/01/06 11:47:17;;;;;;;9.18;4.10;;;;;;;10.76;83.15;101628.31;5285595;28;20039;-74
2023/01/06 11:50:00;;;;;;;9.75;5.13;;;;;;;10.78;83.77;101621.34;5284032;28;20040;-74
2023/01/06 11:52:32;;;;;;;7.25;3.30;;;;;;;10.80;82.74;101619.59;5284664;28;20041;-74
2023/01/06 11:55:06;;;;;;;9.25;3.65;;;;;;;10.68;81.73;101619.63;5283844;28;20024;-74
2023/01/06 11:57:56;;;;;;;6.22;3.08;;;;;;;10.70;82.62;101620.50;5283901;28;20112;-74
2023/01/06 12:00:43;;;;;;;8.32;3.10;;;;;;;10.63;82.61;101619.63;5282739;28;20064;-75
2023/01/06 12:03:43;;;;;;;7.20;2.72;;;;;;;10.64;80.57;101621.38;5283657;28;20063;-75
2023/01/06 12:06:20;;;;;;;5.80;3.08;;;;;;;10.56;80.65;101613.53;5283638;28;20422;-76
2023/01/06 12:08:52;;;;;;;4.70;2.72;;;;;;;10.76;80.90;101607.47;5283672;28;20045;-75